Archival Weather

Bridgeport/Sikorsky

Bridgeport, Connecticut (KBDR)

Report from: Friday, February 23, 2024 3:52 PM EST
Current time: Wednesday, May 29, 2024 7:35 PM EDT

Current weather – Weather history – Daily summaries
Weather forecast

Temperature6.1°C (43.0°F)
Wind chill5.1°C (41.3°F)
Dew point3.9°C (39.0°F)
Winds 3 kts (1.5 m/s, 3.5 mph) East (90°)
Visibility10 mi. (16.1 km)
Clouds Few clouds 5,000 ft. (1,524 m)
Ceiling: Overcast 7,000 ft. (2,134 m)
Altimeter29.45 in.Hg (997 mB)
PrecipitiationTrace
Precip. events Rain began 8:08 PM
Rain ended 8:31 PM
Precip last 3 hoursTrace
Relative humidity86 %
Density altitude-401 ft. (-122 m)
Sea-level pressure99.7 kPa (997 mB, 29.44 in.Hg)
Remarks Automated weather observing station with precipitation discriminator
Pressure falling more slowly
Flight conditions Visual Meteorological Conditions
Raw dataKBDR 232052Z 09003KT 10SM FEW050 OVC070 06/04 A2945 RMK AO2 RAB08E31 SLP971 P0000 60000 T00610039 56011
An error has occurred. This application may no longer respond until reloaded. Reload 🗙